^^
Station Historical Data
Daily Summary for January 6, 2017 Units:  English    Metric   Both
« Previous Day
Next Day »
Daily Weekly Monthly Yearly Custom
  High: Low: Average:
Temperature: 29.6 °F 19.9 °F 25.4 °F
Dew Point: 23.5 °F 10.5 °F 16.4 °F
Humidity: 91 % 46 % 70 %
Wind Speed: 8.6 mph 0.0 mph 2 mph
Wind Gust: 12.7 mph - -
Wind:- - WNW
Pressure: 30.34 in 29.95 in -
Precipitation: 0.04 in    
Historical Graphs
 
 
Tabular Data for January 6, 2017
Time Temperature Dew Point Pressure Wind Wind Speed Wind Gust Humidity Rainfall Rate (Hourly) solar Conditions
00:04 26.3 °F 23.0 °F 29.98 in Calm   2.0 mph 87 % 0.00 in 0.0 W/m2 OVC
00:09 26.2 °F 22.9 °F 29.98 in SW 1.0 mph 3.0 mph 87 % 0.00 in 0.0 W/m2 OVC
00:14 26.2 °F 23.1 °F 29.98 in Calm   1.0 mph 88 % 0.00 in 0.0 W/m2 OVC
00:19 26.2 °F 23.1 °F 29.98 in Calm   3.0 mph 88 % 0.00 in 0.0 W/m2 OVC
00:24 26.1 °F 23.0 °F 29.99 in Calm   3.0 mph 88 % 0.00 in 0.0 W/m2 OVC
00:29 26.1 °F 23.0 °F 29.98 in WSW 1.0 mph 4.0 mph 88 % 0.00 in 0.0 W/m2 OVC
00:34 26.0 °F 22.9 °F 29.98 in Calm   3.0 mph 88 % 0.00 in 0.0 W/m2 OVC
00:39 26.0 °F 22.9 °F 29.98 in Calm   3.0 mph 88 % 0.00 in 0.0 W/m2 OVC
00:44 25.9 °F 23.1 °F 29.98 in Calm   2.0 mph 89 % 0.00 in 0.0 W/m2 OVC
00:49 25.9 °F 23.1 °F 29.98 in Calm     89 % 0.00 in 0.0 W/m2 OVC
00:54 25.9 °F 23.1 °F 29.98 in Calm   1.0 mph 89 % 0.00 in 0.0 W/m2 OVC
00:59 25.9 °F 23.1 °F 29.98 in Calm     89 % 0.00 in 0.0 W/m2 OVC
01:04 26.0 °F 23.2 °F 29.98 in Calm     89 % 0.00 in 0.0 W/m2 OVC
01:09 26.1 °F 23.3 °F 29.98 in West 1.0 mph 3.0 mph 89 % 0.00 in 0.0 W/m2 OVC
01:14 26.1 °F 23.3 °F 29.98 in Calm   3.0 mph 89 % 0.00 in 0.0 W/m2 OVC
01:19 26.0 °F 23.2 °F 29.97 in Calm   2.0 mph 89 % 0.00 in 0.0 W/m2 OVC
01:24 26.0 °F 23.5 °F 29.98 in Calm   2.0 mph 90 % 0.00 in 0.0 W/m2 OVC
01:29 25.9 °F 23.4 °F 29.98 in Calm     90 % 0.00 in 0.0 W/m2 OVC
01:34 25.9 °F 23.4 °F 29.98 in Calm   1.0 mph 90 % 0.00 in 0.0 W/m2 OVC
01:39 26.0 °F 23.5 °F 29.98 in Calm   2.0 mph 90 % 0.00 in 0.0 W/m2 OVC
01:44 26.0 °F 23.5 °F 29.98 in Calm   1.0 mph 90 % 0.00 in 0.0 W/m2 OVC
01:49 26.0 °F 23.5 °F 29.97 in Calm   1.0 mph 90 % 0.00 in 0.0 W/m2 OVC
01:54 25.9 °F 23.4 °F 29.97 in Calm     90 % 0.00 in 0.0 W/m2 OVC
01:59 25.8 °F 23.3 °F 29.96 in Calm     90 % 0.00 in 0.0 W/m2 OVC
02:04 25.8 °F 23.3 °F 29.97 in Calm     90 % 0.00 in 0.0 W/m2 OVC
02:09 25.7 °F 23.2 °F 29.97 in Calm     90 % 0.00 in 0.0 W/m2 OVC
02:14 25.7 °F 23.2 °F 29.97 in Calm     90 % 0.00 in 0.0 W/m2 OVC
02:19 25.6 °F 23.1 °F 29.97 in Calm     90 % 0.00 in 0.0 W/m2 OVC
02:24 25.6 °F 23.1 °F 29.97 in Calm     90 % 0.00 in 0.0 W/m2 OVC
02:29 25.5 °F 23.0 °F 29.97 in Calm     90 % 0.00 in 0.0 W/m2 OVC
02:34 25.5 °F 23.0 °F 29.98 in Calm     90 % 0.00 in 0.0 W/m2 OVC
02:39 25.6 °F 23.1 °F 29.97 in Calm     90 % 0.00 in 0.0 W/m2 OVC
02:44 25.7 °F 23.2 °F 29.97 in Calm     90 % 0.00 in 0.0 W/m2 OVC
02:49 25.7 °F 23.2 °F 29.97 in Calm   3.0 mph 90 % 0.00 in 0.0 W/m2 OVC
02:54 25.7 °F 23.2 °F 29.97 in Calm   1.0 mph 90 % 0.00 in 0.0 W/m2 OVC
02:59 25.7 °F 23.4 °F 29.97 in Calm   4.0 mph 91 % 0.00 in 0.0 W/m2 OVC
03:04 25.8 °F 23.5 °F 29.96 in Calm   2.0 mph 91 % 0.00 in 0.0 W/m2 OVC
03:09 25.8 °F 23.5 °F 29.96 in Calm   3.0 mph 91 % 0.00 in 0.0 W/m2 OVC
03:14 25.8 °F 23.5 °F 29.97 in WNW 1.0 mph 3.0 mph 91 % 0.00 in 0.0 W/m2 OVC
03:19 25.7 °F 23.4 °F 29.96 in WNW 1.0 mph 4.0 mph 91 % 0.00 in 0.0 W/m2 OVC
03:24 25.7 °F 23.4 °F 29.97 in Calm   4.0 mph 91 % 0.00 in 0.0 W/m2 OVC
03:29 25.6 °F 23.3 °F 29.97 in Calm   4.0 mph 91 % 0.00 in 0.0 W/m2 OVC
03:34 25.6 °F 23.3 °F 29.97 in Calm   4.0 mph 91 % 0.00 in 0.0 W/m2 OVC
03:39 25.6 °F 23.3 °F 29.96 in NW 1.0 mph 5.0 mph 91 % 0.00 in 0.0 W/m2 OVC
03:44 25.5 °F 23.2 °F 29.96 in Calm   2.0 mph 91 % 0.00 in 0.0 W/m2 OVC
03:49 25.5 °F 23.2 °F 29.96 in NW 1.0 mph 4.0 mph 91 % 0.00 in 0.0 W/m2 OVC
03:54 25.5 °F 23.2 °F 29.96 in Calm   3.0 mph 91 % 0.00 in 0.0 W/m2 OVC
03:59 25.5 °F 23.2 °F 29.96 in Calm   4.0 mph 91 % 0.00 in 0.0 W/m2 OVC
04:04 25.5 °F 23.2 °F 29.98 in NW 1.0 mph 5.0 mph 91 % 0.00 in 0.0 W/m2 OVC
04:09 25.5 °F 23.2 °F 29.98 in NW 3.0 mph 7.0 mph 91 % 0.00 in 0.0 W/m2 OVC
04:14 25.4 °F 23.1 °F 29.97 in NW 3.0 mph 6.0 mph 91 % 0.00 in 0.0 W/m2 OVC
04:15 28.3 °F 18.4 °F 29.99 in SSW 4.2 mph 11.5 mph 66 % 0.00 in 0.0 W/m2 CLR
04:19 25.4 °F 22.9 °F 29.97 in NW 3.0 mph 11.0 mph 90 % 0.00 in 0.0 W/m2 OVC
04:24 25.3 °F 22.8 °F 29.97 in NW 3.0 mph 11.0 mph 90 % 0.00 in 0.0 W/m2 OVC
04:29 25.3 °F 22.8 °F 29.97 in NW 3.0 mph 9.0 mph 90 % 0.00 in 0.0 W/m2 OVC
04:34 25.2 °F 22.7 °F 29.96 in NW 2.0 mph 5.0 mph 90 % 0.00 in 0.0 W/m2 OVC
04:39 25.2 °F 22.7 °F 29.96 in NW 2.0 mph 5.0 mph 90 % 0.00 in 0.0 W/m2 OVC
04:44 25.1 °F 22.6 °F 29.95 in NW 2.0 mph 5.0 mph 90 % 0.00 in 0.0 W/m2 OVC
04:49 25.1 °F 22.3 °F 29.96 in NW 5.0 mph 8.0 mph 89 % 0.00 in 0.0 W/m2 OVC
04:54 25.1 °F 22.3 °F 29.96 in NW 1.0 mph 5.0 mph 89 % 0.00 in 0.0 W/m2 OVC
04:59 25.1 °F 22.3 °F 29.96 in Calm   3.0 mph 89 % 0.00 in 0.0 W/m2 OVC
05:04 25.1 °F 22.3 °F 29.96 in NW 2.0 mph 3.0 mph 89 % 0.00 in 0.0 W/m2 OVC
05:09 25.0 °F 21.9 °F 29.96 in NW 3.0 mph 8.0 mph 88 % 0.00 in 0.0 W/m2 OVC
05:14 24.9 °F 21.8 °F 29.97 in NW 2.0 mph 5.0 mph 88 % 0.00 in 0.0 W/m2 OVC
05:19 24.9 °F 21.8 °F 29.97 in NW 1.0 mph 3.0 mph 88 % 0.00 in 0.0 W/m2 OVC
05:24 24.9 °F 21.6 °F 29.97 in Calm   4.0 mph 87 % 0.00 in 0.0 W/m2 OVC
05:29 24.9 °F 21.6 °F 29.98 in WNW 1.0 mph 4.0 mph 87 % 0.00 in 0.0 W/m2 OVC
05:34 24.9 °F 21.6 °F 29.98 in WNW 1.0 mph 4.0 mph 87 % 0.00 in 0.0 W/m2 OVC
05:39 24.8 °F 21.5 °F 29.98 in WNW 1.0 mph 4.0 mph 87 % 0.00 in 0.0 W/m2 OVC
05:44 24.8 °F 21.5 °F 30.00 in Calm   4.0 mph 87 % 0.00 in 0.0 W/m2 OVC
05:49 24.8 °F 21.5 °F 30.00 in NW 3.0 mph 5.0 mph 87 % 0.00 in 0.0 W/m2 OVC
05:54 24.8 °F 21.2 °F 30.01 in NW 1.0 mph 4.0 mph 86 % 0.00 in 0.0 W/m2 OVC
05:59 24.7 °F 21.1 °F 30.00 in NW 3.0 mph 5.0 mph 86 % 0.00 in 0.0 W/m2 OVC
06:04 24.6 °F 21.0 °F 30.00 in Calm   3.0 mph 86 % 0.00 in 0.0 W/m2 OVC
06:07 28.3 °F 18.4 °F 29.99 in SSW 4.2 mph 11.5 mph 66 % 0.00 in 0.0 W/m2 CLR
06:09 24.6 °F 20.7 °F 30.00 in Calm   2.0 mph 85 % 0.00 in 0.0 W/m2 OVC
06:14 24.7 °F 20.8 °F 30.00 in Calm     85 % 0.00 in 0.0 W/m2 OVC
06:19 24.7 °F 20.8 °F 30.00 in Calm   1.0 mph 85 % 0.00 in 0.0 W/m2 OVC
06:24 24.7 °F 20.6 °F 30.02 in NW 1.0 mph 3.0 mph 84 % 0.00 in 0.0 W/m2 OVC
06:29 24.8 °F 20.7 °F 30.01 in Calm   4.0 mph 84 % 0.00 in 0.0 W/m2 OVC
06:34 24.8 °F 20.7 °F 30.02 in NNW 1.0 mph 3.0 mph 84 % 0.00 in 0.0 W/m2 OVC
06:39 24.8 °F 20.4 °F 30.01 in NNW 3.0 mph 6.0 mph 83 % 0.00 in 0.0 W/m2 OVC
06:44 24.8 °F 20.4 °F 30.02 in NW 1.0 mph 8.0 mph 83 % 0.00 in 0.0 W/m2 OVC
06:49 24.8 °F 20.1 °F 30.02 in NW 2.0 mph 4.0 mph 82 % 0.00 in 0.0 W/m2 OVC
06:54 24.8 °F 20.1 °F 30.03 in NW 2.0 mph 5.0 mph 82 % 0.00 in 0.0 W/m2 OVC
06:59 24.7 °F 19.7 °F 30.03 in NW 1.0 mph 5.0 mph 81 % 0.00 in 0.0 W/m2 OVC
07:04 24.7 °F 19.7 °F 30.03 in Calm   5.0 mph 81 % 0.00 in 0.0 W/m2 OVC
07:09 24.6 °F 19.6 °F 30.03 in NW 2.0 mph 6.0 mph 81 % 0.00 in 0.0 W/m2 OVC
07:14 24.5 °F 19.2 °F 30.03 in NW 3.0 mph 9.0 mph 80 % 0.00 in 0.0 W/m2 OVC
07:19 24.4 °F 19.1 °F 30.03 in NNW 3.0 mph 9.0 mph 80 % 0.00 in 0.0 W/m2 OVC
07:24 24.3 °F 18.7 °F 30.03 in NNW 1.0 mph 6.0 mph 79 % 0.00 in 0.0 W/m2 OVC
07:29 24.3 °F 18.7 °F 30.04 in NNW 3.0 mph 6.0 mph 79 % 0.00 in 0.0 W/m2 OVC
07:34 24.2 °F 18.6 °F 30.04 in NNW 2.0 mph 6.0 mph 79 % 0.00 in 0.0 W/m2 OVC
07:39 24.1 °F 18.5 °F 30.05 in NNW 1.0 mph 5.0 mph 79 % 0.00 in 5.0 W/m2 OVC
07:44 24.0 °F 18.4 °F 30.05 in Calm   4.0 mph 79 % 0.00 in 5.0 W/m2 CLR
07:49 23.9 °F 18.3 °F 30.06 in Calm   2.0 mph 79 % 0.00 in 11.0 W/m2 CLR
07:54 23.8 °F 18.2 °F 30.06 in Calm   3.0 mph 79 % 0.00 in 19.0 W/m2 CLR
07:59 23.7 °F 18.1 °F 30.07 in Calm     79 % 0.00 in 14.0 W/m2 SCT
08:04 23.6 °F 18.0 °F 30.07 in Calm     79 % 0.00 in 18.0 W/m2 BKN
08:09 23.6 °F 18.0 °F 30.07 in Calm     79 % 0.00 in 20.0 W/m2 BKN
08:14 23.6 °F 18.0 °F 30.07 in Calm     79 % 0.00 in 28.0 W/m2 SCT
08:19 23.5 °F 18.2 °F 30.07 in Calm     80 % 0.00 in 32.0 W/m2 BKN
08:24 23.4 °F 18.1 °F 30.07 in Calm   1.0 mph 80 % 0.00 in 32.0 W/m2 BKN
08:29 23.4 °F 18.1 °F 30.08 in Calm     80 % 0.00 in 18.0 W/m2 OVC
08:34 23.4 °F 18.4 °F 30.08 in Calm     81 % 0.00 in 21.0 W/m2 OVC
08:39 23.4 °F 18.4 °F 30.08 in Calm     81 % 0.00 in 30.0 W/m2 OVC
08:44 23.4 °F 18.4 °F 30.08 in Calm     81 % 0.00 in 66.0 W/m2 SCT
08:49 23.7 °F 18.7 °F 30.09 in Calm     81 % 0.00 in 28.0 W/m2 OVC
08:54 23.8 °F 18.5 °F 30.09 in Calm   1.0 mph 80 % 0.00 in 44.0 W/m2 OVC
08:59 23.7 °F 18.4 °F 30.10 in Calm     80 % 0.00 in 47.0 W/m2 OVC
09:04 23.8 °F 18.5 °F 30.10 in Calm     80 % 0.00 in 70.0 W/m2 BKN
09:09 24.2 °F 18.9 °F 30.09 in Calm     80 % 0.00 in 67.0 W/m2 BKN
09:14 24.7 °F 19.1 °F 30.09 in Calm     79 % 0.00 in 81.0 W/m2 BKN
09:19 24.9 °F 19.0 °F 30.10 in Calm     78 % 0.00 in 83.0 W/m2 BKN
09:24 25.3 °F 19.1 °F 30.10 in NNW 2.0 mph 2.0 mph 77 % 0.00 in 84.0 W/m2 BKN
09:29 25.3 °F 19.1 °F 30.11 in NNW 2.0 mph 3.0 mph 77 % 0.00 in 134.0 W/m2 SCT
09:34 25.4 °F 18.9 °F 30.11 in Calm   2.0 mph 76 % 0.00 in 139.0 W/m2 SCT
09:39 25.9 °F 19.1 °F 30.10 in NNW 2.0 mph 4.0 mph 75 % 0.00 in 105.0 W/m2 BKN
09:44 26.1 °F 18.3 °F 30.11 in NW 2.0 mph 8.0 mph 72 % 0.00 in 165.0 W/m2 SCT
09:49 26.6 °F 18.1 °F 30.12 in NW 3.0 mph 7.0 mph 70 % 0.00 in 193.0 W/m2 FEW
09:54 26.6 °F 17.5 °F 30.12 in NW 3.0 mph 11.0 mph 68 % 0.00 in 245.0 W/m2 CLR
09:59 26.6 °F 17.5 °F 30.11 in NW 5.0 mph 10.0 mph 68 % 0.00 in 192.0 W/m2 SCT
10:04 26.8 °F 17.3 °F 30.12 in NW 7.0 mph 11.0 mph 67 % 0.00 in 193.0 W/m2 SCT
10:09 26.6 °F 17.1 °F 30.13 in NW 5.0 mph 11.0 mph 67 % 0.00 in 141.0 W/m2 BKN
10:14 26.7 °F 16.9 °F 30.13 in NW 3.0 mph 12.0 mph 66 % 0.01 in 283.0 W/m2 RA
10:19 27.0 °F 17.1 °F 30.11 in NW 3.0 mph 10.0 mph 66 % 0.01 in 135.0 W/m2 RA
10:24 27.0 °F 17.1 °F 30.12 in NW 3.0 mph 9.0 mph 66 % 0.00 in 127.0 W/m2 BKN
10:29 27.3 °F 17.1 °F 30.12 in NW 3.0 mph 9.0 mph 65 % 0.00 in 104.0 W/m2 OVC
10:34 27.2 °F 17.0 °F 30.12 in NW 3.0 mph 9.0 mph 65 % 0.00 in 422.0 W/m2 CLR
10:39 27.5 °F 17.6 °F 30.12 in NW 3.0 mph 9.0 mph 66 % 0.00 in 221.0 W/m2 SCT
10:44 27.2 °F 17.0 °F 30.12 in NW 3.0 mph 8.0 mph 65 % 0.00 in 309.0 W/m2 CLR
10:49 27.7 °F 17.5 °F 30.12 in NW 3.0 mph 9.0 mph 65 % 0.00 in 292.0 W/m2 FEW
10:54 28.0 °F 17.7 °F 30.12 in NW 1.0 mph 4.0 mph 65 % 0.00 in 353.0 W/m2 CLR
10:59 27.9 °F 17.3 °F 30.12 in WNW 6.0 mph 10.0 mph 64 % 0.00 in 323.0 W/m2 CLR
11:04 27.3 °F 16.4 °F 30.12 in WNW 2.0 mph 8.0 mph 63 % 0.01 in 211.0 W/m2 RA
11:09 27.0 °F 16.4 °F 30.11 in West 2.0 mph 9.0 mph 64 % 0.01 in 429.0 W/m2 RA
11:14 26.9 °F 16.3 °F 30.11 in West 1.0 mph 5.0 mph 64 % 0.00 in 207.0 W/m2 SCT
11:19 27.6 °F 17.7 °F 30.10 in WNW 1.0 mph 5.0 mph 66 % 0.00 in 207.0 W/m2 SCT
11:24 27.9 °F 17.3 °F 30.10 in WNW 3.0 mph 8.0 mph 64 % 0.00 in 490.0 W/m2 CLR
11:25 28.3 °F 18.4 °F 29.99 in SSW 4.2 mph 11.5 mph 66 % 0.00 in 0.0 W/m2 CLR
11:29 27.8 °F 16.8 °F 30.11 in WNW 2.0 mph 7.0 mph 63 % 0.00 in 137.0 W/m2 OVC
11:34 27.4 °F 16.4 °F 30.11 in NW 2.0 mph 8.0 mph 63 % 0.00 in 153.0 W/m2 BKN
11:39 27.2 °F 16.3 °F 30.11 in NW 3.0 mph 6.0 mph 63 % 0.00 in 194.0 W/m2 BKN
11:44 27.3 °F 16.4 °F 30.11 in NW 1.0 mph 6.0 mph 63 % 0.00 in 211.0 W/m2 SCT
11:49 27.1 °F 15.4 °F 30.11 in Calm   4.0 mph 61 % 0.00 in 306.0 W/m2 FEW
11:57 28.0 °F 16.6 °F 30.11 in NW 0.8 mph 1.0 mph 62 % 0.01 in 360.0 W/m2 CLR
12:02 28.1 °F 16.4 °F 30.11 in WNW 2.2 mph 4.6 mph 61 % 0.01 in 192.0 W/m2 SCT
12:07 27.8 °F 15.7 °F 30.11 in NW 1.9 mph 6.0 mph 60 % 0.02 in 387.0 W/m2 RA
12:12 28.6 °F 16.8 °F 30.11 in NW 3.0 mph 4.6 mph 61 % 0.01 in 392.0 W/m2 RA
12:17 28.9 °F 15.6 °F 30.11 in WNW 5.5 mph 11.5 mph 57 % 0.01 in 461.0 W/m2 CLR
12:22 29.1 °F 14.5 °F 30.10 in WNW 4.7 mph 9.2 mph 54 % 0.01 in 385.0 W/m2 CLR
12:27 28.9 °F 14.7 °F 30.10 in West 4.8 mph 10.0 mph 55 % 0.01 in 341.0 W/m2 CLR
12:32 28.9 °F 15.6 °F 30.10 in WSW 4.5 mph 5.0 mph 57 % 0.01 in 360.0 W/m2 CLR
12:37 28.6 °F 14.9 °F 30.10 in NW 6.9 mph 10.4 mph 56 % 0.01 in 350.0 W/m2 CLR
12:42 29.3 °F 14.7 °F 30.10 in NW 5.0 mph 11.5 mph 54 % 0.01 in 338.0 W/m2 CLR
12:47 29.1 °F 13.6 °F 30.10 in NW 3.5 mph 10.4 mph 52 % 0.01 in 218.0 W/m2 FEW
12:52 28.6 °F 12.3 °F 30.10 in WNW 8.6 mph 11.5 mph 50 % 0.01 in 230.0 W/m2 FEW
12:57 28.3 °F 12.0 °F 30.10 in WNW 6.2 mph 9.2 mph 50 % 0.01 in 274.0 W/m2 CLR
13:02 28.7 °F 12.4 °F 30.10 in WNW 5.2 mph 9.2 mph 50 % 0.01 in 253.0 W/m2 CLR
13:07 29.2 °F 13.7 °F 30.10 in NW 6.1 mph 8.0 mph 52 % 0.01 in 272.0 W/m2 RA
13:12 29.5 °F 12.7 °F 30.10 in NW 4.5 mph 9.2 mph 49 % 0.01 in 294.0 W/m2 RA
13:17 29.6 °F 12.3 °F 30.10 in WNW 8.5 mph 10.0 mph 48 % 0.01 in 253.0 W/m2 CLR
13:22 29.1 °F 12.3 °F 30.10 in West 2.9 mph 8.1 mph 49 % 0.01 in 213.0 W/m2 FEW
13:27 28.8 °F 12.5 °F 30.11 in WNW 5.9 mph 11.5 mph 50 % 0.01 in 237.0 W/m2 CLR
13:32 29.0 °F 12.7 °F 30.11 in WNW 2.1 mph 3.5 mph 50 % 0.01 in 237.0 W/m2 CLR
13:37 28.9 °F 12.1 °F 30.11 in West 3.2 mph 4.6 mph 49 % 0.01 in 257.0 W/m2 CLR
13:42 29.3 °F 12.9 °F 30.11 in NNW 5.3 mph 9.2 mph 50 % 0.01 in 239.0 W/m2 CLR
13:52 29.3 °F 12.0 °F 30.11 in West 5.6 mph 9.2 mph 48 % 0.01 in 241.0 W/m2 CLR
13:57 29.4 °F 12.6 °F 30.11 in WSW 6.9 mph 11.5 mph 49 % 0.01 in 262.0 W/m2 CLR
14:02 29.0 °F 11.3 °F 30.11 in NW 6.5 mph 11.5 mph 47 % 0.01 in 202.0 W/m2 CLR
14:07 29.2 °F 11.4 °F 30.11 in West 3.6 mph 8.1 mph 47 % 0.00 in 197.0 W/m2 CLR
14:12 29.1 °F 10.9 °F 30.10 in WNW 3.8 mph 6.9 mph 46 % 0.00 in 204.0 W/m2 CLR
14:17 28.7 °F 10.5 °F 30.10 in NW 3.3 mph 7.0 mph 46 % 0.00 in 186.0 W/m2 CLR
14:22 29.0 °F 11.7 °F 30.11 in NW 7.5 mph 10.4 mph 48 % 0.00 in 169.0 W/m2 FEW
14:27 28.7 °F 10.5 °F 30.11 in West 7.2 mph 10.4 mph 46 % 0.00 in 155.0 W/m2 FEW
14:32 28.4 °F 11.6 °F 30.12 in WNW 8.4 mph 11.5 mph 49 % 0.00 in 139.0 W/m2 SCT
14:37 28.3 °F 12.0 °F 30.12 in NW 7.2 mph 11.5 mph 50 % 0.00 in 137.0 W/m2 SCT
14:42 28.3 °F 12.0 °F 30.12 in NW 2.1 mph 4.6 mph 50 % 0.00 in 139.0 W/m2 SCT
14:47 28.5 °F 12.2 °F 30.12 in NW 4.2 mph 11.5 mph 50 % 0.00 in 134.0 W/m2 FEW
14:52 28.5 °F 11.7 °F 30.12 in WNW 3.4 mph 12.7 mph 49 % 0.00 in 130.0 W/m2 FEW
14:57 28.2 °F 11.5 °F 30.12 in WNW 2.1 mph 4.6 mph 49 % 0.00 in 134.0 W/m2 FEW
15:02 28.3 °F 12.0 °F 30.12 in WNW 7.1 mph 11.5 mph 50 % 0.00 in 134.0 W/m2 CLR
15:07 28.0 °F 11.7 °F 30.12 in NW 2.8 mph 6.0 mph 50 % 0.00 in 121.0 W/m2 CLR
15:12 28.1 °F 12.7 °F 30.13 in West 5.5 mph 8.0 mph 52 % 0.00 in 123.0 W/m2 CLR
15:17 28.0 °F 12.2 °F 30.13 in WNW 6.0 mph 11.5 mph 51 % 0.00 in 102.0 W/m2 FEW
15:22 27.7 °F 11.5 °F 30.13 in NW 4.4 mph 8.1 mph 50 % 0.00 in 111.0 W/m2 CLR
15:27 27.6 °F 11.8 °F 30.14 in WNW 3.9 mph 10.4 mph 51 % 0.00 in 91.0 W/m2 CLR
15:33 27.6 °F 11.8 °F 30.14 in WNW 2.7 mph 11.5 mph 51 % 0.00 in 109.0 W/m2 CLR
15:38 27.4 °F 11.6 °F 30.14 in NW 5.8 mph 11.5 mph 51 % 0.00 in 70.0 W/m2 SCT
15:43 27.3 °F 12.0 °F 30.14 in West 8.6 mph 11.5 mph 52 % 0.00 in 90.0 W/m2 CLR
15:48 27.2 °F 11.4 °F 30.14 in NW 4.6 mph 11.5 mph 51 % 0.00 in 77.0 W/m2 CLR
15:53 27.1 °F 11.8 °F 30.14 in WNW 4.0 mph 7.0 mph 52 % 0.00 in 74.0 W/m2 CLR
15:58 27.1 °F 12.2 °F 30.15 in WNW 0.6 mph 2.3 mph 53 % 0.00 in 58.0 W/m2 CLR
16:03 27.1 °F 12.6 °F 30.16 in WNW 4.9 mph 9.2 mph 54 % 0.00 in 42.0 W/m2 FEW
16:08 26.9 °F 12.5 °F 30.16 in West 2.1 mph 5.8 mph 54 % 0.00 in 30.0 W/m2 SCT
16:13 26.5 °F 12.5 °F 30.16 in West 1.5 mph 3.5 mph 55 % 0.00 in 25.0 W/m2 SCT
16:18 26.3 °F 12.7 °F 30.16 in WNW 3.5 mph 5.8 mph 56 % 0.00 in 26.0 W/m2 FEW
16:23 26.3 °F 12.7 °F 30.16 in WNW 2.3 mph 3.5 mph 56 % 0.00 in 25.0 W/m2 CLR
16:28 26.2 °F 12.6 °F 30.16 in WNW 4.8 mph 8.1 mph 56 % 0.00 in 19.0 W/m2 CLR
16:33 26.1 °F 12.5 °F 30.17 in West 5.4 mph 10.4 mph 56 % 0.00 in 14.0 W/m2 CLR
16:38 26.0 °F 12.4 °F 30.17 in WNW 4.3 mph 6.9 mph 56 % 0.00 in 12.0 W/m2 CLR
16:43 25.9 °F 12.3 °F 30.17 in WNW 5.1 mph 8.1 mph 56 % 0.00 in 7.0 W/m2 CLR
16:48 25.8 °F 12.2 °F 30.17 in WNW 5.3 mph 8.1 mph 56 % 0.00 in 0.0 W/m2 OVC
16:53 25.7 °F 12.2 °F 30.17 in WSW 5.3 mph 10.4 mph 56 % 0.00 in 0.0 W/m2 OVC
16:58 25.6 °F 12.1 °F 30.18 in West 3.1 mph 8.1 mph 56 % 0.00 in 0.0 W/m2 OVC
17:03 25.5 °F 12.0 °F 30.18 in West 3.5 mph 5.8 mph 56 % 0.00 in 0.0 W/m2 CLR
17:08 25.5 °F 12.4 °F 30.19 in WSW 4.2 mph 6.9 mph 57 % 0.00 in 0.0 W/m2 CLR
17:13 25.5 °F 12.4 °F 30.19 in WNW 1.5 mph 3.5 mph 57 % 0.00 in 0.0 W/m2 CLR
17:18 25.3 °F 12.6 °F 30.19 in West 3.5 mph 10.0 mph 58 % 0.00 in 0.0 W/m2 CLR
17:23 25.2 °F 12.5 °F 30.20 in West 3.5 mph 7.0 mph 58 % 0.00 in 0.0 W/m2 CLR
17:28 25.2 °F 12.1 °F 30.21 in West 1.9 mph 3.5 mph 57 % 0.00 in 0.0 W/m2 CLR
17:33 25.2 °F 12.5 °F 30.21 in West 5.1 mph 9.2 mph 58 % 0.00 in 0.0 W/m2 CLR
17:38 25.1 °F 12.0 °F 30.21 in WNW 5.9 mph 8.1 mph 57 % 0.00 in 0.0 W/m2 CLR
17:43 25.1 °F 12.0 °F 30.21 in WNW 4.0 mph 6.9 mph 57 % 0.00 in 0.0 W/m2 CLR
17:48 25.1 °F 12.0 °F 30.21 in West 3.4 mph 6.9 mph 57 % 0.00 in 0.0 W/m2 CLR
17:53 25.1 °F 12.0 °F 30.22 in WNW 3.6 mph 8.0 mph 57 % 0.00 in 0.0 W/m2 CLR
17:58 25.1 °F 11.6 °F 30.22 in WNW 4.7 mph 8.1 mph 56 % 0.00 in 0.0 W/m2 CLR
18:03 25.1 °F 11.6 °F 30.22 in WNW 3.0 mph 6.9 mph 56 % 0.00 in 0.0 W/m2 CLR
18:08 25.0 °F 11.5 °F 30.22 in WNW 3.9 mph 8.1 mph 56 % 0.00 in 0.0 W/m2 CLR
18:13 25.0 °F 11.5 °F 30.22 in NW 4.2 mph 6.9 mph 56 % 0.00 in 0.0 W/m2 CLR
18:18 25.0 °F 11.5 °F 30.23 in WNW 4.1 mph 8.1 mph 56 % 0.00 in 0.0 W/m2 CLR
18:23 24.9 °F 11.0 °F 30.23 in WNW 3.9 mph 6.9 mph 55 % 0.00 in 0.0 W/m2 CLR
18:28 24.9 °F 11.0 °F 30.23 in WNW 4.1 mph 6.9 mph 55 % 0.00 in 0.0 W/m2 CLR
18:33 24.8 °F 10.9 °F 30.24 in WNW 3.7 mph 5.8 mph 55 % 0.00 in 0.0 W/m2 CLR
18:38 24.8 °F 11.3 °F 30.24 in NW 2.2 mph 4.6 mph 56 % 0.00 in 0.0 W/m2 CLR
18:43 24.8 °F 11.3 °F 30.24 in WNW 1.3 mph 4.0 mph 56 % 0.00 in 0.0 W/m2 CLR
18:48 24.8 °F 11.7 °F 30.24 in Calm   3.5 mph 57 % 0.00 in 0.0 W/m2 CLR
18:53 24.8 °F 11.7 °F 30.24 in NW 3.0 mph 4.6 mph 57 % 0.00 in 0.0 W/m2 CLR
18:58 24.8 °F 11.3 °F 30.24 in WNW 1.2 mph 6.9 mph 56 % 0.00 in 0.0 W/m2 CLR
19:03 24.7 °F 11.2 °F 30.25 in WNW 5.7 mph 9.2 mph 56 % 0.00 in 0.0 W/m2 CLR
19:08 24.7 °F 11.2 °F 30.26 in West 3.8 mph 4.6 mph 56 % 0.00 in 0.0 W/m2 CLR
19:13 24.7 °F 11.2 °F 30.26 in WNW 4.8 mph 6.9 mph 56 % 0.00 in 0.0 W/m2 CLR
19:18 24.5 °F 11.0 °F 30.26 in WNW 3.6 mph 6.9 mph 56 % 0.00 in 0.0 W/m2 CLR
19:23 24.4 °F 10.9 °F 30.26 in West 3.5 mph 7.0 mph 56 % 0.00 in 0.0 W/m2 CLR
19:28 24.3 °F 10.8 °F 30.26 in WNW 2.2 mph 3.5 mph 56 % 0.00 in 0.0 W/m2 CLR
19:33 24.1 °F 11.0 °F 30.26 in WNW 0.9 mph 3.5 mph 57 % 0.00 in 0.0 W/m2 CLR
19:39 24.1 °F 11.4 °F 30.26 in Calm   3.5 mph 58 % 0.00 in 0.0 W/m2 CLR
19:44 24.2 °F 11.5 °F 30.26 in WNW 1.2 mph 3.5 mph 58 % 0.00 in 0.0 W/m2 CLR
19:49 24.3 °F 11.6 °F 30.26 in WNW 0.7 mph 1.2 mph 58 % 0.00 in 0.0 W/m2 CLR
19:54 24.4 °F 11.7 °F 30.26 in Calm   2.3 mph 58 % 0.00 in 0.0 W/m2 CLR
19:59 24.3 °F 11.6 °F 30.26 in WNW 0.8 mph 3.5 mph 58 % 0.00 in 0.0 W/m2 CLR
20:04 24.3 °F 12.0 °F 30.26 in Calm     59 % 0.00 in 0.0 W/m2 CLR
20:09 24.2 °F 11.9 °F 30.26 in NW 0.8 mph 2.3 mph 59 % 0.00 in 0.0 W/m2 CLR
20:14 24.3 °F 12.0 °F 30.26 in NW 0.2 mph 1.2 mph 59 % 0.00 in 0.0 W/m2 CLR
20:19 24.4 °F 12.1 °F 30.27 in WNW 0.2 mph 2.3 mph 59 % 0.00 in 0.0 W/m2 CLR
20:24 24.3 °F 11.6 °F 30.27 in WNW 3.4 mph 8.1 mph 58 % 0.00 in 0.0 W/m2 CLR
20:29 24.4 °F 11.7 °F 30.27 in WNW 0.2 mph 3.5 mph 58 % 0.00 in 0.0 W/m2 CLR
20:34 24.3 °F 11.6 °F 30.27 in WNW 1.4 mph 4.6 mph 58 % 0.00 in 0.0 W/m2 CLR
20:39 24.3 °F 12.0 °F 30.27 in West 0.3 mph 2.3 mph 59 % 0.00 in 0.0 W/m2 CLR
20:44 24.3 °F 12.0 °F 30.27 in Calm   1.2 mph 59 % 0.00 in 0.0 W/m2 CLR
20:49 24.3 °F 12.0 °F 30.27 in Calm     59 % 0.00 in 0.0 W/m2 CLR
20:54 24.1 °F 11.8 °F 30.26 in WNW 0.7 mph 3.5 mph 59 % 0.00 in 0.0 W/m2 CLR
21:04 23.9 °F 12.0 °F 30.27 in Calm     60 % 0.00 in 0.0 W/m2 CLR
21:09 23.6 °F 12.1 °F 30.28 in WNW 0.3 mph 2.3 mph 61 % 0.00 in 0.0 W/m2 CLR
21:14 23.6 °F 11.7 °F 30.28 in WNW 0.4 mph 3.5 mph 60 % 0.00 in 0.0 W/m2 CLR
21:19 23.5 °F 11.6 °F 30.28 in Calm   2.3 mph 60 % 0.00 in 0.0 W/m2 CLR
21:24 23.4 °F 11.9 °F 30.27 in Calm     61 % 0.00 in 0.0 W/m2 CLR
21:29 23.2 °F 11.7 °F 30.27 in Calm   2.0 mph 61 % 0.00 in 0.0 W/m2 CLR
21:34 23.1 °F 11.6 °F 30.26 in WNW 1.1 mph 3.5 mph 61 % 0.00 in 0.0 W/m2 CLR
21:39 23.0 °F 11.5 °F 30.27 in Calm   2.3 mph 61 % 0.00 in 0.0 W/m2 CLR
21:44 22.8 °F 11.7 °F 30.26 in WNW 0.9 mph 2.3 mph 62 % 0.00 in 0.0 W/m2 CLR
21:49 22.6 °F 11.5 °F 30.26 in Calm     62 % 0.00 in 0.0 W/m2 CLR
21:54 22.4 °F 11.3 °F 30.26 in Calm   1.2 mph 62 % 0.00 in 0.0 W/m2 CLR
21:59 22.2 °F 11.1 °F 30.25 in WNW 0.2 mph 1.2 mph 62 % 0.00 in 0.0 W/m2 CLR
22:04 22.1 °F 11.1 °F 30.26 in Calm     62 % 0.00 in 0.0 W/m2 CLR
22:09 22.1 °F 11.4 °F 30.25 in Calm     63 % 0.00 in 0.0 W/m2 CLR
22:14 21.9 °F 11.2 °F 30.25 in Calm     63 % 0.00 in 0.0 W/m2 CLR
22:19 21.6 °F 11.3 °F 30.25 in Calm     64 % 0.00 in 0.0 W/m2 CLR
22:24 21.3 °F 11.4 °F 30.26 in Calm     65 % 0.00 in 0.0 W/m2 CLR
22:29 21.1 °F 11.2 °F 30.27 in Calm     65 % 0.00 in 0.0 W/m2 CLR
22:39 20.5 °F 11.3 °F 30.28 in Calm     67 % 0.00 in 0.0 W/m2 CLR
22:44 20.2 °F 11.3 °F 30.30 in Calm     68 % 0.00 in 0.0 W/m2 CLR
22:49 20.1 °F 11.2 °F 30.30 in Calm     68 % 0.00 in 0.0 W/m2 CLR
22:54 20.1 °F 11.6 °F 30.30 in Calm     69 % 0.00 in 0.0 W/m2 CLR
22:59 20.0 °F 11.5 °F 30.31 in Calm     69 % 0.00 in 0.0 W/m2 CLR
23:05 19.9 °F 11.4 °F 30.31 in Calm     69 % 0.00 in 0.0 W/m2 CLR
23:10 20.1 °F 11.6 °F 30.31 in Calm     69 % 0.00 in 0.0 W/m2 CLR
23:15 20.3 °F 11.7 °F 30.31 in Calm     69 % 0.00 in 0.0 W/m2 CLR
23:20 20.3 °F 11.7 °F 30.32 in Calm   1.0 mph 69 % 0.00 in 0.0 W/m2 CLR
23:25 20.2 °F 11.7 °F 30.32 in Calm   1.0 mph 69 % 0.00 in 0.0 W/m2 CLR
23:30 20.2 °F 11.3 °F 30.32 in Calm     68 % 0.00 in 0.0 W/m2 CLR
23:34 20.1 °F 11.2 °F 30.32 in Calm     68 % 0.00 in 0.0 W/m2 CLR
23:40 20.2 °F 11.3 °F 30.33 in WNW 0.8 mph 1.2 mph 68 % 0.00 in 0.0 W/m2 CLR
23:45 20.3 °F 11.4 °F 30.33 in WNW 0.3 mph 1.2 mph 68 % 0.00 in 0.0 W/m2 CLR
23:50 20.3 °F 11.4 °F 30.34 in WNW 0.7 mph 1.2 mph 68 % 0.00 in 0.0 W/m2 CLR
23:55 20.4 °F 11.5 °F 30.33 in Calm   2.0 mph 68 % 0.00 in 0.0 W/m2 CLR
Air Products Campus Weather
Compliments of Weather Underground - 3.5 mb